SWA421 KAUS-KPHX
Flight info
| Callsign | SWA421 |
|---|---|
| Flight time | N/A |
| Altitude | 34000 |
| Route | MUCKY3 MUCKY JCT ELP DRRVR PINNG1 |
| Aircraft | B737/M-SDE2E3FGHIRWXY/LB1 |
Departure
| Time | 2026-05-04 04:59 |
|---|---|
| Airport | Austin Bergstrom International Airport (KAUS) |
Arrival
| Time | N/A |
|---|---|
| Airport | Phoenix Sky Harbor International Airport (KPHX) |
| Time | Latitude | Longitude | Altitude | Speed | Heading |
|---|---|---|---|---|---|
| 2026-05-04 04:27 | 30.20172 | -97.66507 | 526 ft | 0 kts | 352° |
| 2026-05-04 04:49 | 30.20171 | -97.66507 | 526 ft | 2 kts | 352° |
| 2026-05-04 04:49 | 30.20146 | -97.66504 | 526 ft | 4 kts | 352° |
| 2026-05-04 04:49 | 30.20124 | -97.66500 | 526 ft | 3 kts | 353° |
| 2026-05-04 04:49 | 30.20100 | -97.66501 | 526 ft | 4 kts | 35° |
| 2026-05-04 04:50 | 30.20088 | -97.66522 | 526 ft | 4 kts | 73° |
| 2026-05-04 04:50 | 30.20084 | -97.66538 | 526 ft | 0 kts | 73° |
| 2026-05-04 04:53 | 30.20084 | -97.66536 | 526 ft | 1 kts | 73° |
| 2026-05-04 04:53 | 30.20088 | -97.66508 | 526 ft | 5 kts | 83° |
| 2026-05-04 04:53 | 30.20091 | -97.66460 | 526 ft | 7 kts | 88° |
| 2026-05-04 04:54 | 30.20077 | -97.66399 | 526 ft | 9 kts | 149° |
| 2026-05-04 04:54 | 30.20018 | -97.66391 | 526 ft | 8 kts | 179° |
| 2026-05-04 04:54 | 30.19960 | -97.66390 | 526 ft | 8 kts | 178° |
| 2026-05-04 04:54 | 30.19916 | -97.66359 | 526 ft | 8 kts | 110° |
| 2026-05-04 04:55 | 30.19914 | -97.66285 | 526 ft | 10 kts | 89° |
| 2026-05-04 04:55 | 30.19916 | -97.66202 | 526 ft | 10 kts | 89° |
| 2026-05-04 04:55 | 30.19918 | -97.66103 | 526 ft | 12 kts | 89° |
| 2026-05-04 04:55 | 30.19930 | -97.66007 | 526 ft | 12 kts | 54° |
| 2026-05-04 04:56 | 30.20009 | -97.65990 | 526 ft | 12 kts | 356° |
| 2026-05-04 04:56 | 30.20090 | -97.65993 | 526 ft | 12 kts | 359° |
| 2026-05-04 04:56 | 30.20170 | -97.65996 | 526 ft | 11 kts | 357° |
| 2026-05-04 04:56 | 30.20246 | -97.65999 | 526 ft | 11 kts | 360° |
| 2026-05-04 04:57 | 30.20321 | -97.65999 | 526 ft | 11 kts | 359° |
| 2026-05-04 04:57 | 30.20368 | -97.65949 | 526 ft | 10 kts | 81° |
| 2026-05-04 04:57 | 30.20371 | -97.65867 | 527 ft | 10 kts | 89° |
| 2026-05-04 04:57 | 30.20363 | -97.65799 | 528 ft | 8 kts | 133° |
| 2026-05-04 04:58 | 30.20277 | -97.65787 | 526 ft | 31 kts | 178° |
| 2026-05-04 04:58 | 30.19798 | -97.65775 | 523 ft | 104 kts | 178° |
| 2026-05-04 04:58 | 30.18875 | -97.65751 | 547 ft | 158 kts | 179° |
| 2026-05-04 04:58 | 30.17714 | -97.65739 | 1056 ft | 172 kts | 180° |
| 2026-05-04 04:59 | 30.16508 | -97.65726 | 1914 ft | 167 kts | 177° |
| 2026-05-04 04:59 | 30.15350 | -97.65649 | 2649 ft | 178 kts | 178° |
| 2026-05-04 04:59 | 30.14003 | -97.65607 | 2856 ft | 209 kts | 180° |
| 2026-05-04 04:59 | 30.12474 | -97.65597 | 3151 ft | 234 kts | 184° |
| 2026-05-04 05:00 | 30.10880 | -97.66204 | 3707 ft | 248 kts | 210° |
| 2026-05-04 05:00 | 30.09416 | -97.67300 | 4509 ft | 253 kts | 213° |
| 2026-05-04 05:00 | 30.06449 | -97.69598 | 5906 ft | 262 kts | 214° |
| 2026-05-04 05:01 | 30.05148 | -97.71054 | 6727 ft | 264 kts | 243° |
| 2026-05-04 05:01 | 30.04800 | -97.73100 | 7639 ft | 264 kts | 277° |
| 2026-05-04 05:01 | 30.05384 | -97.75117 | 8628 ft | 267 kts | 294° |
| 2026-05-04 05:01 | 30.06291 | -97.77009 | 9607 ft | 271 kts | 299° |
| 2026-05-04 05:02 | 30.07290 | -97.78874 | 10474 ft | 278 kts | 300° |
| 2026-05-04 05:02 | 30.08366 | -97.80857 | 10757 ft | 306 kts | 300° |
| 2026-05-04 05:02 | 30.09523 | -97.83002 | 11002 ft | 331 kts | 300° |
| 2026-05-04 05:02 | 30.10773 | -97.85339 | 11598 ft | 343 kts | 300° |
| 2026-05-04 05:03 | 30.12014 | -97.87678 | 12343 ft | 348 kts | 300° |
| 2026-05-04 05:03 | 30.13279 | -97.90078 | 13213 ft | 351 kts | 300° |
| 2026-05-04 05:04 | 30.17090 | -97.97364 | 15735 ft | 355 kts | 300° |
| 2026-05-04 05:04 | 30.18365 | -97.99810 | 16605 ft | 356 kts | 299° |
| 2026-05-04 05:04 | 30.19650 | -98.02281 | 17391 ft | 359 kts | 299° |
| 2026-05-04 05:06 | 30.28784 | -98.20213 | 21953 ft | 379 kts | 292° |
| 2026-05-04 05:06 | 30.29664 | -98.23093 | 22535 ft | 381 kts | 285° |
| 2026-05-04 05:06 | 30.30263 | -98.26095 | 23104 ft | 384 kts | 283° |
| 2026-05-04 05:07 | 30.30842 | -98.29125 | 23655 ft | 387 kts | 283° |
| 2026-05-04 05:07 | 30.31422 | -98.32177 | 24108 ft | 389 kts | 283° |
| 2026-05-04 05:07 | 30.32006 | -98.35236 | 24569 ft | 390 kts | 283° |
| 2026-05-04 05:09 | 30.36815 | -98.60056 | 28240 ft | 397 kts | 282° |
| 2026-05-04 05:09 | 30.37408 | -98.63121 | 28881 ft | 393 kts | 282° |
| 2026-05-04 05:10 | 30.38001 | -98.66191 | 29591 ft | 388 kts | 281° |
| 2026-05-04 05:10 | 30.38586 | -98.69225 | 30310 ft | 383 kts | 281° |
| 2026-05-04 05:10 | 30.39163 | -98.72222 | 30905 ft | 380 kts | 282° |
| 2026-05-04 05:10 | 30.39737 | -98.75207 | 31405 ft | 379 kts | 282° |
| 2026-05-04 05:11 | 30.40309 | -98.78188 | 31914 ft | 378 kts | 282° |
| 2026-05-04 05:11 | 30.40876 | -98.81145 | 32493 ft | 374 kts | 282° |
| 2026-05-04 05:11 | 30.41437 | -98.84076 | 33091 ft | 371 kts | 283° |
| 2026-05-04 05:11 | 30.41991 | -98.86972 | 33695 ft | 366 kts | 283° |
| 2026-05-04 05:12 | 30.42543 | -98.89854 | 34055 ft | 369 kts | 283° |
| 2026-05-04 05:12 | 30.43104 | -98.92778 | 34061 ft | 372 kts | 283° |
| 2026-05-04 05:12 | 30.44213 | -98.98574 | 34055 ft | 366 kts | 283° |
| 2026-05-04 05:13 | 30.45308 | -99.04312 | 34058 ft | 365 kts | 283° |
| 2026-05-04 05:13 | 30.46404 | -99.10069 | 34057 ft | 367 kts | 283° |
| 2026-05-04 05:14 | 30.47504 | -99.15865 | 34048 ft | 368 kts | 283° |
| 2026-05-04 05:14 | 30.48604 | -99.21678 | 34049 ft | 369 kts | 283° |
| 2026-05-04 05:15 | 30.49704 | -99.27504 | 34047 ft | 370 kts | 283° |
| 2026-05-04 05:15 | 30.50795 | -99.33298 | 34044 ft | 369 kts | 283° |
| 2026-05-04 05:16 | 30.51885 | -99.39103 | 34040 ft | 368 kts | 283° |
| 2026-05-04 05:16 | 30.52968 | -99.44883 | 34056 ft | 366 kts | 283° |
| 2026-05-04 05:17 | 30.54045 | -99.50644 | 34074 ft | 365 kts | 283° |
| 2026-05-04 05:17 | 30.55117 | -99.56393 | 34086 ft | 365 kts | 283° |
| 2026-05-04 05:18 | 30.56186 | -99.62146 | 34093 ft | 365 kts | 283° |
| 2026-05-04 05:18 | 30.57254 | -99.67907 | 34111 ft | 365 kts | 283° |
| 2026-05-04 05:19 | 30.58321 | -99.73674 | 34113 ft | 366 kts | 283° |
| 2026-05-04 05:19 | 30.59381 | -99.79416 | 34127 ft | 366 kts | 283° |
| 2026-05-04 05:20 | 30.60504 | -99.85197 | 34105 ft | 367 kts | 284° |
| 2026-05-04 05:20 | 30.61757 | -99.90954 | 34085 ft | 368 kts | 284° |
| 2026-05-04 05:21 | 30.63017 | -99.96710 | 34071 ft | 367 kts | 284° |
| 2026-05-04 05:21 | 30.64257 | -100.02466 | 34058 ft | 367 kts | 284° |
| 2026-05-04 05:22 | 30.65488 | -100.08225 | 34036 ft | 367 kts | 284° |
| 2026-05-04 05:22 | 30.66715 | -100.13979 | 34026 ft | 367 kts | 284° |
| 2026-05-04 05:23 | 30.67932 | -100.19697 | 34020 ft | 367 kts | 284° |
| 2026-05-04 05:23 | 30.69155 | -100.25451 | 34020 ft | 366 kts | 284° |
| 2026-05-04 05:24 | 30.70374 | -100.31203 | 34028 ft | 367 kts | 284° |
| 2026-05-04 05:24 | 30.71592 | -100.36962 | 34057 ft | 367 kts | 284° |
| 2026-05-04 05:25 | 30.72807 | -100.42720 | 34073 ft | 367 kts | 284° |
| 2026-05-04 05:25 | 30.74018 | -100.48475 | 34085 ft | 367 kts | 284° |
| 2026-05-04 05:26 | 30.75229 | -100.54239 | 34091 ft | 367 kts | 284° |
| 2026-05-04 05:26 | 30.76437 | -100.60007 | 34087 ft | 367 kts | 284° |
| 2026-05-04 05:28 | 30.81234 | -100.83039 | 34052 ft | 367 kts | 283° |
| 2026-05-04 05:29 | 30.82428 | -100.88806 | 34053 ft | 366 kts | 283° |
| 2026-05-04 05:29 | 30.83618 | -100.94571 | 34067 ft | 366 kts | 283° |
| 2026-05-04 05:31 | 30.88336 | -101.17548 | 34083 ft | 365 kts | 283° |
| 2026-05-04 05:32 | 30.89511 | -101.23307 | 34087 ft | 366 kts | 283° |
| 2026-05-04 05:33 | 30.91270 | -101.31953 | 33997 ft | 366 kts | 283° |
| 2026-05-04 05:33 | 30.92441 | -101.37729 | 34008 ft | 366 kts | 283° |
| 2026-05-04 05:34 | 30.93603 | -101.43469 | 34019 ft | 367 kts | 283° |
| 2026-05-04 05:34 | 30.94770 | -101.49252 | 34007 ft | 367 kts | 283° |
| 2026-05-04 05:35 | 30.95938 | -101.55050 | 34009 ft | 367 kts | 283° |
| 2026-05-04 05:35 | 30.97100 | -101.60836 | 34006 ft | 366 kts | 283° |
| 2026-05-04 05:36 | 30.98258 | -101.66615 | 34008 ft | 366 kts | 283° |
| 2026-05-04 05:36 | 30.99403 | -101.72344 | 34014 ft | 360 kts | 283° |
| 2026-05-04 05:37 | 31.00523 | -101.77960 | 34013 ft | 355 kts | 283° |
| 2026-05-04 05:37 | 31.01643 | -101.83590 | 33996 ft | 357 kts | 283° |
| 2026-05-04 05:38 | 31.03138 | -101.91128 | 33986 ft | 359 kts | 283° |
| 2026-05-04 05:38 | 31.04262 | -101.96810 | 33990 ft | 360 kts | 283° |
| 2026-05-04 05:39 | 31.05944 | -102.05347 | 33987 ft | 359 kts | 284° |
| 2026-05-04 05:40 | 31.07608 | -102.13814 | 33979 ft | 355 kts | 284° |
| 2026-05-04 05:40 | 31.08696 | -102.19373 | 33969 ft | 352 kts | 284° |
| 2026-05-04 05:41 | 31.09785 | -102.24943 | 33971 ft | 351 kts | 284° |
| 2026-05-04 05:41 | 31.10868 | -102.30497 | 33972 ft | 352 kts | 284° |
| 2026-05-04 05:42 | 31.11951 | -102.36069 | 33956 ft | 352 kts | 284° |
| 2026-05-04 05:42 | 31.13035 | -102.41655 | 33950 ft | 353 kts | 284° |
| 2026-05-04 05:43 | 31.14113 | -102.47225 | 33949 ft | 353 kts | 284° |
| 2026-05-04 05:45 | 31.18421 | -102.69642 | 33942 ft | 355 kts | 284° |
| 2026-05-04 05:47 | 31.22708 | -102.92152 | 33920 ft | 353 kts | 284° |
| 2026-05-04 05:47 | 31.23774 | -102.97747 | 33921 ft | 352 kts | 284° |
| 2026-05-04 05:48 | 31.24830 | -103.03325 | 33924 ft | 352 kts | 284° |
| 2026-05-04 05:48 | 31.25884 | -103.08918 | 33912 ft | 352 kts | 284° |
| 2026-05-04 05:49 | 31.26932 | -103.14499 | 33913 ft | 351 kts | 284° |
| 2026-05-04 05:49 | 31.27977 | -103.20077 | 33931 ft | 350 kts | 284° |
| 2026-05-04 05:51 | 31.32105 | -103.42256 | 33996 ft | 349 kts | 284° |
| 2026-05-04 05:52 | 31.33131 | -103.47805 | 33993 ft | 349 kts | 284° |
| 2026-05-04 05:52 | 31.34154 | -103.53349 | 34001 ft | 348 kts | 284° |
| 2026-05-04 05:54 | 31.38198 | -103.75414 | 33957 ft | 347 kts | 284° |
| 2026-05-04 05:55 | 31.39206 | -103.80948 | 33948 ft | 348 kts | 284° |
| 2026-05-04 05:55 | 31.40212 | -103.86485 | 33920 ft | 348 kts | 284° |
| 2026-05-04 05:56 | 31.41215 | -103.92019 | 33912 ft | 347 kts | 284° |
| 2026-05-04 05:56 | 31.42212 | -103.97538 | 33921 ft | 346 kts | 284° |
| 2026-05-04 05:57 | 31.43203 | -104.03036 | 33923 ft | 345 kts | 284° |
| 2026-05-04 05:57 | 31.44186 | -104.08500 | 33942 ft | 344 kts | 284° |
| 2026-05-04 05:58 | 31.45170 | -104.13988 | 33940 ft | 344 kts | 284° |
| 2026-05-04 05:58 | 31.46151 | -104.19476 | 33938 ft | 344 kts | 284° |
| 2026-05-04 05:59 | 31.47133 | -104.24975 | 33932 ft | 344 kts | 284° |
| 2026-05-04 05:59 | 31.48110 | -104.30470 | 33940 ft | 344 kts | 284° |
| 2026-05-04 06:00 | 31.49086 | -104.35937 | 33941 ft | 345 kts | 284° |
| 2026-05-04 06:00 | 31.50058 | -104.41442 | 33941 ft | 345 kts | 284° |
| 2026-05-04 06:01 | 31.51029 | -104.46950 | 33940 ft | 345 kts | 284° |
| 2026-05-04 06:03 | 31.54886 | -104.68952 | 33933 ft | 343 kts | 283° |